Darstellungsparameter: Aktuell verwendete Einstellungen:
Skalierung der Graphiken ... ?
xyx+y,   Skalierungsfaktor:      Skalierung: Modus: x, Faktor: 1
Darstellungszeitraum ... ?
Vom - - bis: - -   Zeitraum: 21.03.2020 - 23.03.2020
Min/Max/Avg-Anzeige ... ?
Zeige MMA aktuell
Zeige MMA Monat
Zeige MMA alles
Zeige --A aktuell
Zeige --A Monat
Zeige --A alles
Keine MMA-Anzeige
MMA:
Average (ber die Originaldaten)
MMA-Basis: 21.03.2020 - 23.03.2020
Quicknavigation für Darstellung... ?
Tage:      1T, 2T, 3T, 5T -1T -2T -3T -5T +1T +2T +3T +5T
Wochen: 1W, 2W, 3W -1W -2W -3W +1W +2W +3W
Monate: 1M, 3M, 6M -1M -3M -6M +1M +3M +6M
Jahre:    1J, 3J, 5J, 10J -1J -3J -5J -10J +1J +3J +5J +10J
Nutze für die Darstellung ... ?
Originaldaten oder Mittelwerte auf ...
Stundenbasis Tagesbasis Wochenbasis
Monatsbasis Jahresbasis      Datenbasis: Original-Daten
Darstellen als:
Statistik (Auto) Statistik J:M      Darstellung:
Zur Graphik,    zurück zur Übersicht aller Sensoren.
 
Tabellarische Datenbersicht: ?
 
Sensor: Nr:Datum:Temp:Abs-Feuchte:Windchill:Wind:
Aussen-T/F 1 21-03-2020 00:00:00 8 C 6.2 g/m*3 6.01 C 11.3 km/h
2 21-03-2020 00:05:00 7.9 C 6.16 g/m*3 4.8 C 19.3 km/h
3 21-03-2020 00:10:00 7.9 C 6.16 g/m*3 5.89 C 11.3 km/h
4 21-03-2020 00:15:00 7.9 C 6.16 g/m*3 7.9 C 3.2 km/h
5 21-03-2020 00:20:00 7.8 C 6.04 g/m*3 6.83 C 6.4 km/h
6 21-03-2020 00:25:00 7.8 C 6.04 g/m*3 4.68 C 19.3 km/h
7 21-03-2020 00:30:00 7.8 C 6.12 g/m*3 6.06 C 9.7 km/h
8 21-03-2020 00:35:00 7.8 C 6.04 g/m*3 5.77 C 11.3 km/h
9 21-03-2020 00:40:00 7.7 C 6 g/m*3 5.94 C 9.7 km/h
10 21-03-2020 00:45:00 7.7 C 6 g/m*3 5.38 C 12.9 km/h
11 21-03-2020 00:50:00 7.7 C 6 g/m*3 5.38 C 12.9 km/h
12 21-03-2020 00:55:00 7.6 C 5.88 g/m*3 7.6 C 4.8 km/h
13 21-03-2020 01:00:00 7.6 C 5.96 g/m*3 5.02 C 14.5 km/h
14 21-03-2020 01:05:00 7.6 C 5.88 g/m*3 6.6 C 6.4 km/h
15 21-03-2020 01:10:00 7.6 C 5.96 g/m*3 6.6 C 6.4 km/h
16 21-03-2020 01:15:00 7.6 C 5.96 g/m*3 4.81 C 16.1 km/h
17 21-03-2020 01:20:00 7.5 C 6 g/m*3 4.3 C 19.3 km/h
18 21-03-2020 01:25:00 7.4 C 5.96 g/m*3 5.02 C 12.9 km/h
19 21-03-2020 01:30:00 7.4 C 6.04 g/m*3 4.78 C 14.5 km/h
20 21-03-2020 01:35:00 7.3 C 6.16 g/m*3 5.47 C 9.7 km/h
21 21-03-2020 01:40:00 7.3 C 6.24 g/m*3 5.81 C 8.1 km/h
22 21-03-2020 01:45:00 7.2 C 6.2 g/m*3 7.2 C 4.8 km/h
23 21-03-2020 01:50:00 7.1 C 6.24 g/m*3 6.02 C 6.4 km/h
24 21-03-2020 01:55:00 7 C 6.28 g/m*3 5.46 C 8.1 km/h
25 21-03-2020 02:00:00 6.8 C 6.27 g/m*3 4.29 C 12.9 km/h
Sensor: Nr:Datum:Temp:Abs-Feuchte:Windchill:Wind:
Aussen-T/F 26 21-03-2020 02:05:00 6.7 C 6.31 g/m*3 3.29 C 19.3 km/h
27 21-03-2020 02:10:00 6.6 C 6.34 g/m*3 4.32 C 11.3 km/h
28 21-03-2020 02:15:00 6.4 C 6.33 g/m*3 4.39 C 9.7 km/h
29 21-03-2020 02:20:00 6.3 C 6.37 g/m*3 4.27 C 9.7 km/h
30 21-03-2020 02:25:00 6.1 C 6.28 g/m*3 3.72 C 11.3 km/h
31 21-03-2020 02:30:00 6 C 6.31 g/m*3 4.75 C 6.4 km/h
32 21-03-2020 02:35:00 5.9 C 6.35 g/m*3 5.9 C 4.8 km/h
33 21-03-2020 02:40:00 5.8 C 6.38 g/m*3 2.81 C 14.5 km/h
34 21-03-2020 02:45:00 5.7 C 6.33 g/m*3 2.95 C 12.9 km/h
35 21-03-2020 02:50:00 5.6 C 6.29 g/m*3 2.57 C 14.5 km/h
36 21-03-2020 02:55:00 5.5 C 6.25 g/m*3 3.32 C 9.7 km/h
37 21-03-2020 03:00:00 5.4 C 6.21 g/m*3 3.2 C 9.7 km/h
38 21-03-2020 03:05:00 5.4 C 6.21 g/m*3 3.2 C 9.7 km/h
39 21-03-2020 03:10:00 5.4 C 6.28 g/m*3 3.2 C 9.7 km/h
40 21-03-2020 03:15:00 5.3 C 6.31 g/m*3 5.3 C 3.2 km/h
41 21-03-2020 03:20:00 5.3 C 6.31 g/m*3 5.3 C 1.6 km/h
42 21-03-2020 03:25:00 5.3 C 6.31 g/m*3 5.3 C 0 km/h
43 21-03-2020 03:30:00 5.3 C 6.38 g/m*3 5.3 C 0 km/h
44 21-03-2020 03:35:00 5.3 C 6.38 g/m*3 5.3 C 0 km/h
45 21-03-2020 03:40:00 5.2 C 6.33 g/m*3 5.2 C 3.2 km/h
46 21-03-2020 03:45:00 5.2 C 6.33 g/m*3 5.2 C 3.2 km/h
47 21-03-2020 03:50:00 5.2 C 6.33 g/m*3 5.2 C 4.8 km/h
48 21-03-2020 03:55:00 5.1 C 6.29 g/m*3 5.1 C 3.2 km/h
49 21-03-2020 04:00:00 5.1 C 6.29 g/m*3 3.23 C 8.1 km/h
50 21-03-2020 04:05:00 5 C 6.25 g/m*3 2.09 C 12.9 km/h
Sensor: Nr:Datum:Temp:Abs-Feuchte:Windchill:Wind:
Aussen-T/F 51 21-03-2020 04:10:00 5 C 6.25 g/m*3 5 C 3.2 km/h
52 21-03-2020 04:15:00 4.9 C 6.21 g/m*3 4.9 C 4.8 km/h
53 21-03-2020 04:20:00 4.8 C 6.17 g/m*3 2.49 C 9.7 km/h
54 21-03-2020 04:25:00 4.8 C 6.17 g/m*3 4.8 C 1.6 km/h
55 21-03-2020 04:30:00 4.8 C 6.17 g/m*3 4.8 C 1.6 km/h
56 21-03-2020 04:35:00 4.8 C 6.24 g/m*3 4.8 C 3.2 km/h
57 21-03-2020 04:40:00 4.8 C 6.24 g/m*3 4.8 C 4.8 km/h
58 21-03-2020 04:45:00 4.8 C 6.24 g/m*3 4.8 C 3.2 km/h
59 21-03-2020 04:50:00 4.7 C 6.19 g/m*3 4.7 C 4.8 km/h
60 21-03-2020 04:55:00 4.7 C 6.19 g/m*3 4.7 C 1.6 km/h
61 21-03-2020 05:00:00 4.7 C 6.19 g/m*3 4.7 C 0 km/h
62 21-03-2020 05:05:00 4.7 C 6.19 g/m*3 4.7 C 0 km/h
63 21-03-2020 05:10:00 4.7 C 6.19 g/m*3 4.7 C 4.8 km/h
64 21-03-2020 05:15:00 4.6 C 6.15 g/m*3 4.6 C 0 km/h
65 21-03-2020 05:20:00 4.6 C 6.15 g/m*3 4.6 C 0 km/h
66 21-03-2020 05:25:00 4.6 C 6.15 g/m*3 4.6 C 1.6 km/h
67 21-03-2020 05:30:00 4.6 C 6.22 g/m*3 4.6 C 0 km/h
68 21-03-2020 05:35:00 4.6 C 6.22 g/m*3 4.6 C 1.6 km/h
69 21-03-2020 05:40:00 4.6 C 6.22 g/m*3 4.6 C 1.6 km/h
70 21-03-2020 05:45:00 4.6 C 6.22 g/m*3 4.6 C 0 km/h
71 21-03-2020 05:50:00 4.6 C 6.22 g/m*3 4.6 C 0 km/h
72 21-03-2020 05:55:00 4.6 C 6.22 g/m*3 4.6 C 0 km/h
73 21-03-2020 06:00:00 4.6 C 6.22 g/m*3 4.6 C 0 km/h
74 21-03-2020 06:05:00 4.6 C 6.22 g/m*3 4.6 C 0 km/h
75 21-03-2020 06:10:00 4.6 C 6.22 g/m*3 4.6 C 3.2 km/h
Sensor: Nr:Datum:Temp:Abs-Feuchte:Windchill:Wind:
Aussen-T/F 76 21-03-2020 06:15:00 4.6 C 6.22 g/m*3 4.6 C 0 km/h
77 21-03-2020 06:20:00 4.6 C 6.22 g/m*3 4.6 C 0 km/h
78 21-03-2020 06:25:00 4.6 C 6.22 g/m*3 4.6 C 0 km/h
79 21-03-2020 06:30:00 4.6 C 6.22 g/m*3 4.6 C 0 km/h
80 21-03-2020 06:35:00 4.6 C 6.22 g/m*3 4.6 C 0 km/h
81 21-03-2020 06:40:00 4.6 C 6.22 g/m*3 4.6 C 3.2 km/h
82 21-03-2020 06:45:00 4.6 C 6.22 g/m*3 4.6 C 0 km/h
83 21-03-2020 06:50:00 4.6 C 6.29 g/m*3 4.6 C 0 km/h
84 21-03-2020 06:55:00 4.6 C 6.29 g/m*3 4.6 C 0 km/h
85 21-03-2020 07:00:00 4.6 C 6.29 g/m*3 4.6 C 0 km/h
86 21-03-2020 07:05:00 4.7 C 6.33 g/m*3 4.7 C 0 km/h
87 21-03-2020 07:10:00 4.7 C 6.33 g/m*3 4.7 C 1.6 km/h
88 21-03-2020 07:15:00 4.7 C 6.33 g/m*3 4.7 C 0 km/h
89 21-03-2020 07:20:00 4.7 C 6.33 g/m*3 4.7 C 1.6 km/h
90 21-03-2020 07:25:00 4.7 C 6.33 g/m*3 4.7 C 0 km/h
91 21-03-2020 07:30:00 4.7 C 6.33 g/m*3 4.7 C 0 km/h
92 21-03-2020 07:35:00 4.8 C 6.37 g/m*3 4.8 C 0 km/h
93 21-03-2020 07:40:00 4.8 C 6.37 g/m*3 4.8 C 0 km/h
94 21-03-2020 07:45:00 4.8 C 6.37 g/m*3 4.8 C 0 km/h
95 21-03-2020 07:50:00 4.8 C 6.37 g/m*3 4.8 C 0 km/h
96 21-03-2020 07:55:00 4.8 C 6.37 g/m*3 4.8 C 1.6 km/h
97 21-03-2020 08:00:00 4.9 C 6.41 g/m*3 4.9 C 3.2 km/h
98 21-03-2020 08:05:00 4.9 C 6.41 g/m*3 4.9 C 3.2 km/h
99 21-03-2020 08:10:00 5 C 6.46 g/m*3 5 C 1.6 km/h
100 21-03-2020 08:15:00 5 C 6.46 g/m*3 3.59 C 6.4 km/h
Sensor: Nr:Datum:Temp:Abs-Feuchte:Windchill:Wind:
Aussen-T/F 101 21-03-2020 08:20:00 5 C 6.46 g/m*3 5 C 0 km/h
102 21-03-2020 08:25:00 5.1 C 6.5 g/m*3 5.1 C 0 km/h
103 21-03-2020 08:30:00 5.1 C 6.5 g/m*3 5.1 C 0 km/h
104 21-03-2020 08:35:00 5.2 C 6.54 g/m*3 5.2 C 1.6 km/h
105 21-03-2020 08:40:00 5.2 C 6.54 g/m*3 5.2 C 1.6 km/h
106 21-03-2020 08:45:00 5.2 C 6.54 g/m*3 5.2 C 0 km/h
107 21-03-2020 08:50:00 5.3 C 6.58 g/m*3 5.3 C 0 km/h
108 21-03-2020 08:55:00 5.3 C 6.58 g/m*3 5.3 C 1.6 km/h
109 21-03-2020 09:00:00 5.3 C 6.58 g/m*3 5.3 C 0 km/h
110 21-03-2020 09:05:00 5.3 C 6.58 g/m*3 5.3 C 0 km/h
111 21-03-2020 09:10:00 5.3 C 6.58 g/m*3 5.3 C 1.6 km/h
112 21-03-2020 09:15:00 5.2 C 6.54 g/m*3 5.2 C 4.8 km/h
113 21-03-2020 09:20:00 5.3 C 6.58 g/m*3 5.3 C 1.6 km/h
114 21-03-2020 09:25:00 5.4 C 6.63 g/m*3 5.4 C 0 km/h
115 21-03-2020 09:30:00 5.5 C 6.67 g/m*3 5.5 C 1.6 km/h
116 21-03-2020 09:35:00 5.6 C 6.72 g/m*3 5.6 C 4.8 km/h
117 21-03-2020 09:40:00 5.7 C 6.76 g/m*3 5.7 C 4.8 km/h
118 21-03-2020 09:45:00 5.8 C 6.73 g/m*3 5.8 C 1.6 km/h
119 21-03-2020 09:50:00 5.9 C 6.85 g/m*3 5.9 C 4.8 km/h
120 21-03-2020 09:55:00 6 C 6.82 g/m*3 3.92 C 9.7 km/h
121 21-03-2020 10:00:00 6.1 C 6.87 g/m*3 6.1 C 1.6 km/h
122 21-03-2020 10:05:00 6.1 C 6.79 g/m*3 3.72 C 11.3 km/h
123 21-03-2020 10:10:00 6.1 C 6.65 g/m*3 2.95 C 16.1 km/h
124 21-03-2020 10:15:00 6.2 C 6.62 g/m*3 3.84 C 11.3 km/h
125 21-03-2020 10:20:00 6.3 C 6.66 g/m*3 3.96 C 11.3 km/h
Sensor: Nr:Datum:Temp:Abs-Feuchte:Windchill:Wind:
Aussen-T/F 126 21-03-2020 10:25:00 6.4 C 6.63 g/m*3 4.39 C 9.7 km/h
127 21-03-2020 10:30:00 6.5 C 6.67 g/m*3 4.2 C 11.3 km/h
128 21-03-2020 10:35:00 6.6 C 6.64 g/m*3 4.99 C 8.1 km/h
129 21-03-2020 10:40:00 6.6 C 6.57 g/m*3 4.99 C 8.1 km/h
130 21-03-2020 10:45:00 6.6 C 6.49 g/m*3 4.63 C 9.7 km/h
131 21-03-2020 10:50:00 6.6 C 6.49 g/m*3 4.04 C 12.9 km/h
132 21-03-2020 10:55:00 6.5 C 6.37 g/m*3 3.44 C 16.1 km/h
133 21-03-2020 11:00:00 6.5 C 6.3 g/m*3 3.44 C 16.1 km/h
134 21-03-2020 11:05:00 6.6 C 6.42 g/m*3 4.63 C 9.7 km/h
135 21-03-2020 11:10:00 6.7 C 6.38 g/m*3 4.75 C 9.7 km/h
136 21-03-2020 11:15:00 6.7 C 6.15 g/m*3 3.69 C 16.1 km/h
137 21-03-2020 11:20:00 6.8 C 6.19 g/m*3 4.29 C 12.9 km/h
138 21-03-2020 11:25:00 7.1 C 6.32 g/m*3 5.58 C 8.1 km/h
139 21-03-2020 11:30:00 7.3 C 6.24 g/m*3 5.16 C 11.3 km/h
140 21-03-2020 11:35:00 7.4 C 6.2 g/m*3 5.28 C 11.3 km/h
141 21-03-2020 11:40:00 7.6 C 6.44 g/m*3 6.16 C 8.1 km/h
142 21-03-2020 11:45:00 7.6 C 5.96 g/m*3 5.26 C 12.9 km/h
143 21-03-2020 11:50:00 7.6 C 6.04 g/m*3 5.53 C 11.3 km/h
144 21-03-2020 11:55:00 7.6 C 5.96 g/m*3 5.53 C 11.3 km/h
145 21-03-2020 12:00:00 7.6 C 5.96 g/m*3 5.26 C 12.9 km/h
146 21-03-2020 12:05:00 7.5 C 5.92 g/m*3 5.14 C 12.9 km/h
147 21-03-2020 12:10:00 7.4 C 6.04 g/m*3 4.78 C 14.5 km/h
148 21-03-2020 12:15:00 7.4 C 6.12 g/m*3 4.56 C 16.1 km/h
149 21-03-2020 12:20:00 7.5 C 5.84 g/m*3 4.3 C 19.3 km/h
150 21-03-2020 12:25:00 7.6 C 5.96 g/m*3 4.61 C 17.7 km/h
Sensor: Nr:Datum:Temp:Abs-Feuchte:Windchill:Wind:
Aussen-T/F 151 21-03-2020 12:30:00 7.7 C 6 g/m*3 4.93 C 16.1 km/h
152 21-03-2020 12:35:00 7.8 C 5.71 g/m*3 4.68 C 19.3 km/h
153 21-03-2020 12:40:00 7.8 C 5.79 g/m*3 6.06 C 9.7 km/h
154 21-03-2020 12:45:00 7.8 C 5.71 g/m*3 4.68 C 19.3 km/h
155 21-03-2020 12:50:00 7.8 C 5.71 g/m*3 5.27 C 14.5 km/h
156 21-03-2020 12:55:00 7.7 C 5.59 g/m*3 4.93 C 16.1 km/h
157 21-03-2020 13:00:00 7.7 C 5.51 g/m*3 4.55 C 19.3 km/h
158 21-03-2020 13:05:00 7.8 C 5.55 g/m*3 4.05 C 25.7 km/h
159 21-03-2020 13:10:00 7.9 C 5.59 g/m*3 6.52 C 8.1 km/h
160 21-03-2020 13:15:00 8.1 C 5.66 g/m*3 5.05 C 19.3 km/h
161 21-03-2020 13:20:00 8.2 C 5.61 g/m*3 5.36 C 17.7 km/h
162 21-03-2020 13:25:00 8.2 C 5.53 g/m*3 5.01 C 20.9 km/h
163 21-03-2020 13:30:00 8.2 C 5.44 g/m*3 5.36 C 17.7 km/h
164 21-03-2020 13:35:00 8.3 C 5.48 g/m*3 5.31 C 19.3 km/h
165 21-03-2020 13:40:00 8.1 C 5.24 g/m*3 4.05 C 30.6 km/h
166 21-03-2020 13:45:00 8.1 C 5.49 g/m*3 4.89 C 20.9 km/h
167 21-03-2020 13:50:00 8.2 C 5.36 g/m*3 5.18 C 19.3 km/h
168 21-03-2020 13:55:00 8.2 C 5.28 g/m*3 4.86 C 22.5 km/h
169 21-03-2020 14:00:00 8.3 C 5.31 g/m*3 5.68 C 16.1 km/h
170 21-03-2020 14:05:00 8.3 C 5.39 g/m*3 5.89 C 14.5 km/h
171 21-03-2020 14:10:00 8.4 C 5.26 g/m*3 6.24 C 12.9 km/h
172 21-03-2020 14:15:00 8.4 C 5.26 g/m*3 5.11 C 22.5 km/h
173 21-03-2020 14:20:00 8.4 C 5.34 g/m*3 5.61 C 17.7 km/h
174 21-03-2020 14:25:00 8.4 C 5.43 g/m*3 6.78 C 9.7 km/h
175 21-03-2020 14:30:00 8.6 C 5.33 g/m*3 5.68 C 19.3 km/h
Sensor: Nr:Datum:Temp:Abs-Feuchte:Windchill:Wind:
Aussen-T/F 176 21-03-2020 14:35:00 8.5 C 5.21 g/m*3 5.39 C 20.9 km/h
177 21-03-2020 14:40:00 8.5 C 5.38 g/m*3 5.73 C 17.7 km/h
178 21-03-2020 14:45:00 8.7 C 5.19 g/m*3 5.98 C 17.7 km/h
179 21-03-2020 14:50:00 8.7 C 5.28 g/m*3 5.35 C 24.1 km/h
180 21-03-2020 14:55:00 8.7 C 5.28 g/m*3 5.98 C 17.7 km/h
181 21-03-2020 15:00:00 8.8 C 5.31 g/m*3 5.93 C 19.3 km/h
182 21-03-2020 15:05:00 9 C 5.47 g/m*3 6.36 C 17.7 km/h
183 21-03-2020 15:10:00 8.9 C 5.08 g/m*3 6.62 C 14.5 km/h
184 21-03-2020 15:15:00 8.9 C 4.99 g/m*3 6.85 C 12.9 km/h
185 21-03-2020 15:20:00 9.1 C 5.23 g/m*3 7.61 C 9.7 km/h
186 21-03-2020 15:25:00 9.3 C 5.21 g/m*3 7.12 C 14.5 km/h
187 21-03-2020 15:30:00 9.4 C 5.25 g/m*3 6.69 C 19.3 km/h
188 21-03-2020 15:35:00 9.4 C 5.16 g/m*3 6.69 C 19.3 km/h
189 21-03-2020 15:40:00 9.1 C 4.97 g/m*3 5.73 C 25.7 km/h
190 21-03-2020 15:45:00 8.8 C 5.14 g/m*3 5.62 C 22.5 km/h
191 21-03-2020 15:50:00 8.6 C 5.07 g/m*3 6.05 C 16.1 km/h
192 21-03-2020 15:55:00 8.6 C 5.07 g/m*3 5.86 C 17.7 km/h
193 21-03-2020 16:00:00 8.6 C 5.24 g/m*3 6.73 C 11.3 km/h
194 21-03-2020 16:05:00 8.8 C 5.22 g/m*3 6.3 C 16.1 km/h
195 21-03-2020 16:10:00 8.8 C 5.22 g/m*3 6.5 C 14.5 km/h
196 21-03-2020 16:15:00 8.9 C 5.17 g/m*3 7.37 C 9.7 km/h
197 21-03-2020 16:20:00 9.3 C 4.94 g/m*3 7.58 C 11.3 km/h
198 21-03-2020 16:25:00 9.5 C 5.1 g/m*3 7.16 C 16.1 km/h
199 21-03-2020 16:30:00 9.7 C 5.16 g/m*3 8.63 C 8.1 km/h
200 21-03-2020 16:35:00 9.9 C 4.95 g/m*3 7.85 C 14.5 km/h
Sensor: Nr:Datum:Temp:Abs-Feuchte:Windchill:Wind:
Aussen-T/F 201 21-03-2020 16:40:00 10.1 C 5.11 g/m*3 8.54 C 11.3 km/h
202 21-03-2020 16:45:00 10.1 C 4.92 g/m*3 8.8 C 9.7 km/h
203 21-03-2020 16:50:00 9.9 C 5.04 g/m*3 7.48 C 17.7 km/h
204 21-03-2020 16:55:00 9.9 C 5.04 g/m*3 8.06 C 12.9 km/h
205 21-03-2020 17:00:00 9.8 C 5.01 g/m*3 8.18 C 11.3 km/h
206 21-03-2020 17:05:00 9.6 C 5.04 g/m*3 7.94 C 11.3 km/h
207 21-03-2020 17:10:00 9.3 C 4.94 g/m*3 7.58 C 11.3 km/h
208 21-03-2020 17:15:00 8.9 C 4.64 g/m*3 6.23 C 17.7 km/h
209 21-03-2020 17:20:00 8.6 C 4.64 g/m*3 6.05 C 16.1 km/h
210 21-03-2020 17:25:00 8.4 C 4.84 g/m*3 5.8 C 16.1 km/h
211 21-03-2020 17:30:00 8.3 C 4.64 g/m*3 5.89 C 14.5 km/h
212 21-03-2020 17:35:00 8.1 C 4.49 g/m*3 5.05 C 19.3 km/h
213 21-03-2020 17:40:00 8.1 C 4.74 g/m*3 5.87 C 12.9 km/h
214 21-03-2020 17:45:00 8 C 4.63 g/m*3 5.75 C 12.9 km/h
215 21-03-2020 17:50:00 7.9 C 4.6 g/m*3 4.8 C 19.3 km/h
216 21-03-2020 17:55:00 7.8 C 4.65 g/m*3 5.27 C 14.5 km/h
217 21-03-2020 18:00:00 7.7 C 4.7 g/m*3 6.71 C 6.4 km/h
218 21-03-2020 18:05:00 7.5 C 4.48 g/m*3 4.9 C 14.5 km/h
219 21-03-2020 18:10:00 7.4 C 4.53 g/m*3 5.02 C 12.9 km/h
220 21-03-2020 18:15:00 7.3 C 4.42 g/m*3 7.3 C 4.8 km/h
221 21-03-2020 18:20:00 7.3 C 4.42 g/m*3 5.47 C 9.7 km/h
222 21-03-2020 18:25:00 7.2 C 4.47 g/m*3 6.13 C 6.4 km/h
223 21-03-2020 18:30:00 7.1 C 4.52 g/m*3 6.02 C 6.4 km/h
224 21-03-2020 18:35:00 6.9 C 4.7 g/m*3 6.9 C 3.2 km/h
225 21-03-2020 18:40:00 6.8 C 4.67 g/m*3 6.8 C 4.8 km/h
Sensor: Nr:Datum:Temp:Abs-Feuchte:Windchill:Wind:
Aussen-T/F 226 21-03-2020 18:45:00 6.6 C 4.76 g/m*3 6.6 C 4.8 km/h
227 21-03-2020 18:50:00 6.4 C 4.62 g/m*3 4.75 C 8.1 km/h
228 21-03-2020 18:55:00 6.3 C 4.59 g/m*3 4.27 C 9.7 km/h
229 21-03-2020 19:00:00 6.3 C 4.52 g/m*3 4.64 C 8.1 km/h
230 21-03-2020 19:05:00 6.2 C 4.63 g/m*3 4.98 C 6.4 km/h
231 21-03-2020 19:10:00 6.1 C 4.6 g/m*3 4.86 C 6.4 km/h
232 21-03-2020 19:15:00 5.9 C 4.54 g/m*3 5.9 C 1.6 km/h
233 21-03-2020 19:20:00 5.8 C 4.73 g/m*3 5.8 C 3.2 km/h
234 21-03-2020 19:25:00 5.6 C 4.81 g/m*3 5.6 C 3.2 km/h
235 21-03-2020 19:30:00 5.4 C 4.67 g/m*3 5.4 C 3.2 km/h
236 21-03-2020 19:35:00 5.2 C 4.61 g/m*3 5.2 C 4.8 km/h
237 21-03-2020 19:40:00 5.2 C 4.68 g/m*3 3.82 C 6.4 km/h
238 21-03-2020 19:45:00 5.1 C 4.72 g/m*3 2.84 C 9.7 km/h
239 21-03-2020 19:50:00 5.1 C 4.45 g/m*3 2.84 C 9.7 km/h
240 21-03-2020 19:55:00 5.1 C 4.51 g/m*3 5.1 C 4.8 km/h
241 21-03-2020 20:00:00 4.9 C 4.39 g/m*3 4.9 C 3.2 km/h
242 21-03-2020 20:05:00 4.9 C 4.52 g/m*3 4.9 C 4.8 km/h
243 21-03-2020 20:10:00 4.8 C 4.63 g/m*3 4.8 C 3.2 km/h
244 21-03-2020 20:15:00 4.6 C 4.57 g/m*3 4.6 C 0 km/h
245 21-03-2020 20:20:00 4.4 C 4.64 g/m*3 4.4 C 0 km/h
246 21-03-2020 20:25:00 4.2 C 4.45 g/m*3 2.17 C 8.1 km/h
247 21-03-2020 20:30:00 4.2 C 4.38 g/m*3 4.2 C 3.2 km/h
248 21-03-2020 20:35:00 4.3 C 4.41 g/m*3 1.55 C 11.3 km/h
249 21-03-2020 20:40:00 4.4 C 4.24 g/m*3 2.01 C 9.7 km/h
250 21-03-2020 20:45:00 4.4 C 4.31 g/m*3 4.4 C 4.8 km/h
Sensor: Nr:Datum:Temp:Abs-Feuchte:Windchill:Wind:
Aussen-T/F 251 21-03-2020 20:50:00 4.4 C 4.44 g/m*3 4.4 C 3.2 km/h
252 21-03-2020 20:55:00 4.3 C 4.41 g/m*3 4.3 C 4.8 km/h
253 21-03-2020 21:00:00 4.2 C 4.38 g/m*3 1.77 C 9.7 km/h
254 21-03-2020 21:05:00 4.2 C 4.38 g/m*3 4.2 C 4.8 km/h
255 21-03-2020 21:10:00 4.1 C 4.29 g/m*3 1.31 C 11.3 km/h
256 21-03-2020 21:15:00 4.1 C 4.29 g/m*3 2.55 C 6.4 km/h
257 21-03-2020 21:20:00 4.2 C 4.32 g/m*3 1.43 C 11.3 km/h
258 21-03-2020 21:25:00 4.2 C 4.25 g/m*3 1.12 C 12.9 km/h
259 21-03-2020 21:30:00 4.2 C 4.38 g/m*3 1.77 C 9.7 km/h
260 21-03-2020 21:35:00 4.1 C 4.35 g/m*3 2.55 C 6.4 km/h
261 21-03-2020 21:40:00 3.9 C 4.36 g/m*3 3.9 C 3.2 km/h
262 21-03-2020 21:45:00 3.8 C 4.33 g/m*3 0.63 C 12.9 km/h
263 21-03-2020 21:50:00 3.7 C 4.3 g/m*3 1.18 C 9.7 km/h
264 21-03-2020 21:55:00 3.6 C 4.39 g/m*3 3.6 C 3.2 km/h
265 21-03-2020 22:00:00 3.4 C 4.34 g/m*3 3.4 C 1.6 km/h
266 21-03-2020 22:05:00 3.3 C 4.25 g/m*3 1.11 C 8.1 km/h
267 21-03-2020 22:10:00 3.2 C 4.28 g/m*3 3.2 C 3.2 km/h
268 21-03-2020 22:15:00 3.2 C 4.28 g/m*3 0.58 C 9.7 km/h
269 21-03-2020 22:20:00 3.3 C 4.19 g/m*3 0.02 C 12.9 km/h
270 21-03-2020 22:25:00 3.4 C 4.28 g/m*3 3.4 C 4.8 km/h
271 21-03-2020 22:30:00 3.4 C 4.21 g/m*3 -0.14 C 14.5 km/h
272 21-03-2020 22:35:00 3.4 C 4.28 g/m*3 3.4 C 4.8 km/h
273 21-03-2020 22:40:00 3.3 C 4.25 g/m*3 0.34 C 11.3 km/h
274 21-03-2020 22:45:00 3.3 C 4.25 g/m*3 0.34 C 11.3 km/h
275 21-03-2020 22:50:00 3.3 C 4.25 g/m*3 0.7 C 9.7 km/h
Sensor: Nr:Datum:Temp:Abs-Feuchte:Windchill:Wind:
Aussen-T/F 276 21-03-2020 22:55:00 3.2 C 4.22 g/m*3 3.2 C 3.2 km/h
277 21-03-2020 23:00:00 3.2 C 4.22 g/m*3 1.51 C 6.4 km/h
278 21-03-2020 23:05:00 3.1 C 4.31 g/m*3 3.1 C 3.2 km/h
279 21-03-2020 23:10:00 2.9 C 4.13 g/m*3 2.9 C 4.8 km/h
280 21-03-2020 23:15:00 2.9 C 4.25 g/m*3 2.9 C 3.2 km/h
281 21-03-2020 23:20:00 2.7 C 4.14 g/m*3 2.7 C 3.2 km/h
282 21-03-2020 23:25:00 2.7 C 4.14 g/m*3 0.4 C 8.1 km/h
283 21-03-2020 23:30:00 2.7 C 4.25 g/m*3 0.4 C 8.1 km/h
284 21-03-2020 23:35:00 2.7 C 4.14 g/m*3 -0.38 C 11.3 km/h
285 21-03-2020 23:40:00 2.8 C 4.11 g/m*3 1.05 C 6.4 km/h
286 21-03-2020 23:45:00 2.7 C 4.14 g/m*3 2.7 C 1.6 km/h
287 21-03-2020 23:50:00 2.7 C 4.14 g/m*3 -1 C 14.5 km/h
288 21-03-2020 23:55:00 2.6 C 4.17 g/m*3 2.6 C 3.2 km/h
289 22-03-2020 00:00:00 2.6 C 4.17 g/m*3 0.29 C 8.1 km/h
290 22-03-2020 00:05:00 2.4 C 4.17 g/m*3 2.4 C 4.8 km/h
291 22-03-2020 00:10:00 2.4 C 4.11 g/m*3 0.59 C 6.4 km/h
292 22-03-2020 00:15:00 2.4 C 4.17 g/m*3 2.4 C 3.2 km/h
293 22-03-2020 00:20:00 2.2 C 4.17 g/m*3 2.2 C 1.6 km/h
294 22-03-2020 00:25:00 2.1 C 4.14 g/m*3 2.1 C 1.6 km/h
295 22-03-2020 00:30:00 1.9 C 4.19 g/m*3 1.9 C 3.2 km/h
296 22-03-2020 00:35:00 1.9 C 4.14 g/m*3 -0.97 C 9.7 km/h
297 22-03-2020 00:40:00 2 C 4.11 g/m*3 2 C 3.2 km/h
298 22-03-2020 00:45:00 2.1 C 4.08 g/m*3 0.24 C 6.4 km/h
299 22-03-2020 00:50:00 2 C 4.17 g/m*3 2 C 3.2 km/h
300 22-03-2020 00:55:00 2.1 C 4.08 g/m*3 -2.01 C 16.1 km/h
Sensor: Nr:Datum:Temp:Abs-Feuchte:Windchill:Wind:
Aussen-T/F 301 22-03-2020 01:00:00 2.3 C 4.03 g/m*3 -1.76 C 16.1 km/h
302 22-03-2020 01:05:00 2.4 C 4 g/m*3 -0.37 C 9.7 km/h
303 22-03-2020 01:10:00 2.5 C 4.08 g/m*3 0.71 C 6.4 km/h
304 22-03-2020 01:15:00 2.5 C 4.14 g/m*3 -0.26 C 9.7 km/h
305 22-03-2020 01:20:00 2.4 C 4.05 g/m*3 2.4 C 4.8 km/h
306 22-03-2020 01:25:00 2.3 C 4.03 g/m*3 0.47 C 6.4 km/h
307 22-03-2020 01:30:00 2.3 C 4.03 g/m*3 0.47 C 6.4 km/h
308 22-03-2020 01:35:00 2.2 C 4.06 g/m*3 0.36 C 6.4 km/h
309 22-03-2020 01:40:00 2.2 C 4.06 g/m*3 2.2 C 3.2 km/h
310 22-03-2020 01:45:00 2.2 C 4 g/m*3 -0.18 C 8.1 km/h
311 22-03-2020 01:50:00 2.1 C 4.03 g/m*3 2.1 C 3.2 km/h
312 22-03-2020 01:55:00 2.2 C 3.94 g/m*3 -0.61 C 9.7 km/h
313 22-03-2020 02:00:00 2.2 C 4 g/m*3 2.2 C 4.8 km/h
314 22-03-2020 02:05:00 2.2 C 4.11 g/m*3 2.2 C 0 km/h
315 22-03-2020 02:10:00 1.9 C 4.03 g/m*3 1.9 C 3.2 km/h
316 22-03-2020 02:15:00 1.7 C 4.08 g/m*3 -0.77 C 8.1 km/h
317 22-03-2020 02:20:00 1.5 C 3.97 g/m*3 -1.01 C 8.1 km/h
318 22-03-2020 02:25:00 1.7 C 4.03 g/m*3 -0.22 C 6.4 km/h
319 22-03-2020 02:30:00 1.6 C 4.06 g/m*3 1.6 C 4.8 km/h
320 22-03-2020 02:35:00 1.7 C 4.03 g/m*3 -1.21 C 9.7 km/h
321 22-03-2020 02:40:00 1.7 C 4.03 g/m*3 1.7 C 3.2 km/h
322 22-03-2020 02:45:00 1.7 C 3.92 g/m*3 -1.21 C 9.7 km/h
323 22-03-2020 02:50:00 1.7 C 3.97 g/m*3 -1.59 C 11.3 km/h
324 22-03-2020 02:55:00 1.7 C 3.92 g/m*3 -0.77 C 8.1 km/h
325 22-03-2020 03:00:00 1.7 C 4.03 g/m*3 1.7 C 3.2 km/h
Sensor: Nr:Datum:Temp:Abs-Feuchte:Windchill:Wind:
Aussen-T/F 326 22-03-2020 03:05:00 1.5 C 3.97 g/m*3 1.5 C 4.8 km/h
327 22-03-2020 03:10:00 1.4 C 3.89 g/m*3 -1.57 C 9.7 km/h
328 22-03-2020 03:15:00 1.6 C 4.06 g/m*3 1.6 C 3.2 km/h
329 22-03-2020 03:20:00 1.4 C 4 g/m*3 1.4 C 0 km/h
330 22-03-2020 03:25:00 1.1 C 3.97 g/m*3 -0.91 C 6.4 km/h
331 22-03-2020 03:30:00 1.1 C 3.97 g/m*3 -0.91 C 6.4 km/h
332 22-03-2020 03:35:00 1 C 4 g/m*3 1 C 4.8 km/h
333 22-03-2020 03:40:00 0.9 C 3.97 g/m*3 0.9 C 1.6 km/h
334 22-03-2020 03:45:00 0.7 C 3.92 g/m*3 0.7 C 1.6 km/h
335 22-03-2020 03:50:00 0.7 C 3.97 g/m*3 0.7 C 3.2 km/h
336 22-03-2020 03:55:00 0.6 C 3.94 g/m*3 -1.49 C 6.4 km/h
337 22-03-2020 04:00:00 0.7 C 3.97 g/m*3 0.7 C 1.6 km/h
338 22-03-2020 04:05:00 0.8 C 3.94 g/m*3 -2.67 C 11.3 km/h
339 22-03-2020 04:10:00 0.9 C 3.87 g/m*3 -1.71 C 8.1 km/h
340 22-03-2020 04:15:00 1.1 C 3.97 g/m*3 -0.91 C 6.4 km/h
341 22-03-2020 04:20:00 1.1 C 3.97 g/m*3 1.1 C 1.6 km/h
342 22-03-2020 04:25:00 0.9 C 3.87 g/m*3 -2.16 C 9.7 km/h
343 22-03-2020 04:30:00 1.3 C 3.97 g/m*3 -2.41 C 12.9 km/h
344 22-03-2020 04:35:00 1.3 C 3.97 g/m*3 -0.68 C 6.4 km/h
345 22-03-2020 04:40:00 1.2 C 3.84 g/m*3 -1.36 C 8.1 km/h
346 22-03-2020 04:45:00 1.2 C 3.89 g/m*3 -1.36 C 8.1 km/h
347 22-03-2020 04:50:00 1.1 C 3.92 g/m*3 -1.48 C 8.1 km/h
348 22-03-2020 04:55:00 0.9 C 3.87 g/m*3 0.9 C 3.2 km/h
349 22-03-2020 05:00:00 0.9 C 3.87 g/m*3 0.9 C 4.8 km/h
350 22-03-2020 05:05:00 0.8 C 3.84 g/m*3 -1.83 C 8.1 km/h
Sensor: Nr:Datum:Temp:Abs-Feuchte:Windchill:Wind:
Aussen-T/F 351 22-03-2020 05:10:00 0.8 C 3.89 g/m*3 -2.28 C 9.7 km/h
352 22-03-2020 05:15:00 0.8 C 3.89 g/m*3 0.8 C 3.2 km/h
353 22-03-2020 05:20:00 0.8 C 3.89 g/m*3 -1.26 C 6.4 km/h
354 22-03-2020 05:25:00 0.8 C 3.84 g/m*3 0.8 C 3.2 km/h
355 22-03-2020 05:30:00 0.8 C 3.84 g/m*3 0.8 C 4.8 km/h
356 22-03-2020 05:35:00 0.7 C 3.86 g/m*3 0.7 C 3.2 km/h
357 22-03-2020 05:40:00 0.6 C 3.84 g/m*3 0.6 C 3.2 km/h
358 22-03-2020 05:45:00 0.6 C 3.84 g/m*3 -2.52 C 9.7 km/h
359 22-03-2020 05:50:00 0.4 C 3.84 g/m*3 0.4 C 1.6 km/h
360 22-03-2020 05:55:00 0.3 C 3.81 g/m*3 0.3 C 3.2 km/h
361 22-03-2020 06:00:00 0.2 C 3.83 g/m*3 0.2 C 1.6 km/h
362 22-03-2020 06:05:00 0 C 3.78 g/m*3 0 C 4.8 km/h
363 22-03-2020 06:10:00 0.1 C 3.81 g/m*3 0.1 C 3.2 km/h
364 22-03-2020 06:15:00 0.1 C 3.81 g/m*3 0.1 C 3.2 km/h
365 22-03-2020 06:20:00 0.2 C 3.78 g/m*3 -4.64 C 17.7 km/h
366 22-03-2020 06:25:00 0.6 C 3.74 g/m*3 -4.14 C 17.7 km/h
367 22-03-2020 06:30:00 0.8 C 3.84 g/m*3 0.8 C 4.8 km/h
368 22-03-2020 06:35:00 0.7 C 3.81 g/m*3 0.7 C 1.6 km/h
369 22-03-2020 06:40:00 0.6 C 3.79 g/m*3 0.6 C 3.2 km/h
370 22-03-2020 06:45:00 0.7 C 3.76 g/m*3 -2.8 C 11.3 km/h
371 22-03-2020 06:50:00 0.7 C 3.71 g/m*3 0.7 C 4.8 km/h
372 22-03-2020 06:55:00 0.8 C 3.74 g/m*3 0.8 C 1.6 km/h
373 22-03-2020 07:00:00 0.8 C 3.79 g/m*3 0.8 C 4.8 km/h
374 22-03-2020 07:05:00 0.8 C 3.74 g/m*3 -1.83 C 8.1 km/h
375 22-03-2020 07:10:00 0.8 C 3.74 g/m*3 -1.83 C 8.1 km/h
Sensor: Nr:Datum:Temp:Abs-Feuchte:Windchill:Wind:
Aussen-T/F 376 22-03-2020 07:15:00 0.8 C 3.79 g/m*3 -1.83 C 8.1 km/h
377 22-03-2020 07:20:00 0.8 C 3.79 g/m*3 0.8 C 3.2 km/h
378 22-03-2020 07:25:00 0.8 C 3.74 g/m*3 0.8 C 4.8 km/h
379 22-03-2020 07:30:00 0.8 C 3.69 g/m*3 -1.83 C 8.1 km/h
380 22-03-2020 07:35:00 0.8 C 3.79 g/m*3 0.8 C 3.2 km/h
381 22-03-2020 07:40:00 0.8 C 3.74 g/m*3 0.8 C 4.8 km/h
382 22-03-2020 07:45:00 0.9 C 3.66 g/m*3 -2.16 C 9.7 km/h
383 22-03-2020 07:50:00 1.1 C 3.76 g/m*3 -0.91 C 6.4 km/h
384 22-03-2020 07:55:00 1.1 C 3.76 g/m*3 1.1 C 3.2 km/h
385 22-03-2020 08:00:00 1.1 C 3.71 g/m*3 -2.97 C 14.5 km/h
386 22-03-2020 08:05:00 1.2 C 3.74 g/m*3 -2.19 C 11.3 km/h
387 22-03-2020 08:10:00 1.3 C 3.76 g/m*3 -1.24 C 8.1 km/h
388 22-03-2020 08:15:00 1.3 C 3.76 g/m*3 -3.73 C 20.9 km/h
389 22-03-2020 08:20:00 1.4 C 3.68 g/m*3 -2.6 C 14.5 km/h
390 22-03-2020 08:25:00 1.5 C 3.76 g/m*3 -1.01 C 8.1 km/h
391 22-03-2020 08:30:00 1.6 C 3.68 g/m*3 -1.33 C 9.7 km/h
392 22-03-2020 08:35:00 1.6 C 3.68 g/m*3 -0.89 C 8.1 km/h
393 22-03-2020 08:40:00 1.7 C 3.65 g/m*3 1.7 C 4.8 km/h
394 22-03-2020 08:45:00 1.8 C 3.73 g/m*3 1.8 C 3.2 km/h
395 22-03-2020 08:50:00 1.7 C 3.7 g/m*3 1.7 C 1.6 km/h
396 22-03-2020 08:55:00 1.7 C 3.65 g/m*3 -0.22 C 6.4 km/h
397 22-03-2020 09:00:00 1.8 C 3.67 g/m*3 1.8 C 4.8 km/h
398 22-03-2020 09:05:00 1.8 C 3.73 g/m*3 -1.09 C 9.7 km/h
399 22-03-2020 09:10:00 2.1 C 3.58 g/m*3 -0.73 C 9.7 km/h
400 22-03-2020 09:15:00 2.3 C 3.69 g/m*3 -1.76 C 16.1 km/h
Sensor: Nr:Datum:Temp:Abs-Feuchte:Windchill:Wind:
Aussen-T/F 401 22-03-2020 09:20:00 2.6 C 3.59 g/m*3 -1.39 C 16.1 km/h
402 22-03-2020 09:25:00 2.7 C 3.55 g/m*3 -1 C 14.5 km/h
403 22-03-2020 09:30:00 2.8 C 3.58 g/m*3 -0.26 C 11.3 km/h
404 22-03-2020 09:35:00 2.8 C 3.7 g/m*3 -0.26 C 11.3 km/h
405 22-03-2020 09:40:00 2.9 C 3.66 g/m*3 -0.14 C 11.3 km/h
406 22-03-2020 09:45:00 3.2 C 3.56 g/m*3 -0.1 C 12.9 km/h
407 22-03-2020 09:50:00 3.4 C 3.54 g/m*3 -0.4 C 16.1 km/h
408 22-03-2020 09:55:00 3.6 C 3.59 g/m*3 1.06 C 9.7 km/h
409 22-03-2020 10:00:00 3.8 C 3.51 g/m*3 1.29 C 9.7 km/h
410 22-03-2020 10:05:00 3.9 C 3.54 g/m*3 1.41 C 9.7 km/h
411 22-03-2020 10:10:00 4.1 C 3.58 g/m*3 1 C 12.9 km/h
412 22-03-2020 10:15:00 4.3 C 3.57 g/m*3 1.55 C 11.3 km/h
413 22-03-2020 10:20:00 4.4 C 3.26 g/m*3 -0.16 C 24.1 km/h
414 22-03-2020 10:25:00 4.6 C 3.31 g/m*3 0.1 C 24.1 km/h
415 22-03-2020 10:30:00 4.7 C 3.33 g/m*3 0.99 C 17.7 km/h
416 22-03-2020 10:35:00 4.8 C 3.22 g/m*3 1.85 C 12.9 km/h
417 22-03-2020 10:40:00 4.9 C 3.24 g/m*3 1.46 C 16.1 km/h
418 22-03-2020 10:45:00 5.1 C 3.15 g/m*3 2.22 C 12.9 km/h
419 22-03-2020 10:50:00 5.2 C 3.24 g/m*3 2.34 C 12.9 km/h
420 22-03-2020 10:55:00 5.3 C 3.12 g/m*3 3.46 C 8.1 km/h
421 22-03-2020 11:00:00 5.4 C 3.07 g/m*3 1.86 C 17.7 km/h
422 22-03-2020 11:05:00 5.6 C 2.97 g/m*3 2.57 C 14.5 km/h
423 22-03-2020 11:10:00 5.7 C 3.2 g/m*3 2.45 C 16.1 km/h
424 22-03-2020 11:15:00 5.9 C 3.03 g/m*3 2.7 C 16.1 km/h
425 22-03-2020 11:20:00 6.1 C 2.85 g/m*3 4.04 C 9.7 km/h
Sensor: Nr:Datum:Temp:Abs-Feuchte:Windchill:Wind:
Aussen-T/F 426 22-03-2020 11:25:00 6.3 C 2.89 g/m*3 2.12 C 25.7 km/h
427 22-03-2020 11:30:00 6.4 C 2.76 g/m*3 3.11 C 17.7 km/h
428 22-03-2020 11:35:00 6.5 C 3 g/m*3 2.69 C 22.5 km/h
429 22-03-2020 11:40:00 6.6 C 2.79 g/m*3 2.22 C 29 km/h
430 22-03-2020 11:45:00 6.6 C 2.79 g/m*3 3.57 C 16.1 km/h
431 22-03-2020 11:50:00 6.7 C 2.89 g/m*3 5.11 C 8.1 km/h
432 22-03-2020 11:55:00 6.8 C 2.75 g/m*3 2.76 C 25.7 km/h
433 22-03-2020 12:00:00 6.9 C 2.85 g/m*3 3.73 C 17.7 km/h
434 22-03-2020 12:05:00 7.1 C 2.81 g/m*3 3.98 C 17.7 km/h
435 22-03-2020 12:10:00 7.2 C 2.98 g/m*3 3.58 C 22.5 km/h
436 22-03-2020 12:15:00 7.3 C 2.77 g/m*3 4.66 C 14.5 km/h
437 22-03-2020 12:20:00 7.4 C 2.78 g/m*3 3.39 C 27.4 km/h
438 22-03-2020 12:25:00 7.4 C 2.86 g/m*3 4.56 C 16.1 km/h
439 22-03-2020 12:30:00 7.5 C 2.8 g/m*3 5.41 C 11.3 km/h
440 22-03-2020 12:35:00 7.6 C 2.74 g/m*3 4.61 C 17.7 km/h
441 22-03-2020 12:40:00 7.7 C 2.76 g/m*3 4.07 C 24.1 km/h
442 22-03-2020 12:45:00 7.8 C 2.86 g/m*3 4.2 C 24.1 km/h
443 22-03-2020 12:50:00 7.9 C 2.87 g/m*3 4.63 C 20.9 km/h
444 22-03-2020 12:55:00 8.1 C 3 g/m*3 5.64 C 14.5 km/h
445 22-03-2020 13:00:00 8.3 C 3.03 g/m*3 5.89 C 14.5 km/h
446 22-03-2020 13:05:00 8.5 C 2.9 g/m*3 4.95 C 25.7 km/h
447 22-03-2020 13:10:00 8.5 C 2.82 g/m*3 5.56 C 19.3 km/h
448 22-03-2020 13:15:00 8.6 C 2.92 g/m*3 6.05 C 16.1 km/h
449 22-03-2020 13:20:00 8.7 C 2.94 g/m*3 4.84 C 30.6 km/h
450 22-03-2020 13:25:00 8.8 C 3.31 g/m*3 6.11 C 17.7 km/h
Sensor: Nr:Datum:Temp:Abs-Feuchte:Windchill:Wind:
Aussen-T/F 451 22-03-2020 13:30:00 9 C 3 g/m*3 5.87 C 22.5 km/h
452 22-03-2020 13:35:00 8.9 C 2.89 g/m*3 5.9 C 20.9 km/h
453 22-03-2020 13:40:00 9.1 C 3.02 g/m*3 6.67 C 16.1 km/h
454 22-03-2020 13:45:00 9.2 C 2.95 g/m*3 5.99 C 24.1 km/h
455 22-03-2020 13:50:00 9.4 C 2.98 g/m*3 6.38 C 22.5 km/h
456 22-03-2020 13:55:00 9.2 C 2.95 g/m*3 6.61 C 17.7 km/h
457 22-03-2020 14:00:00 9.2 C 2.95 g/m*3 7.21 C 12.9 km/h
458 22-03-2020 14:05:00 9.2 C 3.04 g/m*3 7.21 C 12.9 km/h
459 22-03-2020 14:10:00 9.3 C 3.06 g/m*3 6.92 C 16.1 km/h
460 22-03-2020 14:15:00 9.3 C 3.06 g/m*3 6.92 C 16.1 km/h
461 22-03-2020 14:20:00 9.3 C 2.97 g/m*3 6.56 C 19.3 km/h
462 22-03-2020 14:25:00 9.3 C 2.97 g/m*3 7.12 C 14.5 km/h
463 22-03-2020 14:30:00 9.4 C 3.08 g/m*3 7.04 C 16.1 km/h
464 22-03-2020 14:35:00 9.5 C 3.09 g/m*3 7.36 C 14.5 km/h
465 22-03-2020 14:40:00 9.6 C 3.3 g/m*3 7.29 C 16.1 km/h
466 22-03-2020 14:45:00 9.6 C 3.11 g/m*3 6.94 C 19.3 km/h
467 22-03-2020 14:50:00 9.6 C 3.11 g/m*3 6.94 C 19.3 km/h
468 22-03-2020 14:55:00 9.7 C 3.13 g/m*3 7.41 C 16.1 km/h
469 22-03-2020 15:00:00 9.7 C 3.23 g/m*3 8.06 C 11.3 km/h
470 22-03-2020 15:05:00 9.9 C 3.08 g/m*3 7.66 C 16.1 km/h
471 22-03-2020 15:10:00 9.9 C 3.27 g/m*3 8.56 C 9.7 km/h
472 22-03-2020 15:15:00 10 C 3.19 g/m*3 8.19 C 12.9 km/h
473 22-03-2020 15:20:00 10.1 C 3.22 g/m*3 8.54 C 11.3 km/h
474 22-03-2020 15:25:00 10.1 C 3.22 g/m*3 9.1 C 8.1 km/h
475 22-03-2020 15:30:00 10.2 C 3.14 g/m*3 7.86 C 17.7 km/h
Sensor: Nr:Datum:Temp:Abs-Feuchte:Windchill:Wind:
Aussen-T/F 476 22-03-2020 15:35:00 10.2 C 3.14 g/m*3 8.03 C 16.1 km/h
477 22-03-2020 15:40:00 10.3 C 3.06 g/m*3 8.16 C 16.1 km/h
478 22-03-2020 15:45:00 10.4 C 3.28 g/m*3 7.95 C 19.3 km/h
479 22-03-2020 15:50:00 10.5 C 3.2 g/m*3 8.4 C 16.1 km/h
480 22-03-2020 15:55:00 10.4 C 3.08 g/m*3 8.47 C 14.5 km/h
481 22-03-2020 16:00:00 10.6 C 3.22 g/m*3 9.14 C 11.3 km/h
482 22-03-2020 16:05:00 10.7 C 3.14 g/m*3 8.48 C 17.7 km/h
483 22-03-2020 16:10:00 10.7 C 3.04 g/m*3 9.04 C 12.9 km/h
484 22-03-2020 16:15:00 10.8 C 3.26 g/m*3 9.38 C 11.3 km/h
485 22-03-2020 16:20:00 10.9 C 3.28 g/m*3 9.08 C 14.5 km/h
486 22-03-2020 16:25:00 11 C 3.2 g/m*3 9.63 C 11.3 km/h
487 22-03-2020 16:30:00 11.1 C 3.32 g/m*3 11.1 C 17.7 km/h
488 22-03-2020 16:35:00 11.2 C 3.24 g/m*3 11.2 C 14.5 km/h
489 22-03-2020 16:40:00 11.2 C 3.45 g/m*3 11.2 C 14.5 km/h
490 22-03-2020 16:45:00 11.3 C 3.37 g/m*3 11.3 C 14.5 km/h
491 22-03-2020 16:50:00 11.3 C 3.26 g/m*3 11.3 C 9.7 km/h
492 22-03-2020 16:55:00 11.3 C 3.37 g/m*3 11.3 C 8.1 km/h
493 22-03-2020 17:00:00 11.3 C 3.57 g/m*3 11.3 C 14.5 km/h
494 22-03-2020 17:05:00 11 C 3.6 g/m*3 8.56 C 20.9 km/h
495 22-03-2020 17:10:00 10.8 C 3.56 g/m*3 8.78 C 16.1 km/h
496 22-03-2020 17:15:00 10.4 C 3.47 g/m*3 7.95 C 19.3 km/h
497 22-03-2020 17:20:00 10.6 C 3.71 g/m*3 9.69 C 8.1 km/h
498 22-03-2020 17:25:00 10.7 C 3.73 g/m*3 9.52 C 9.7 km/h
499 22-03-2020 17:30:00 10.8 C 3.76 g/m*3 9.93 C 8.1 km/h
500 22-03-2020 17:35:00 10.7 C 3.73 g/m*3 8.32 C 19.3 km/h
Sensor: Nr:Datum:Temp:Abs-Feuchte:Windchill:Wind:
Aussen-T/F 501 22-03-2020 17:40:00 10.4 C 3.86 g/m*3 9.16 C 9.7 km/h
502 22-03-2020 17:45:00 10.4 C 3.86 g/m*3 9.46 C 8.1 km/h
503 22-03-2020 17:50:00 10.2 C 3.9 g/m*3 8.66 C 11.3 km/h
504 22-03-2020 17:55:00 9.9 C 3.73 g/m*3 8.06 C 12.9 km/h
505 22-03-2020 18:00:00 9.7 C 3.78 g/m*3 7.07 C 19.3 km/h
506 22-03-2020 18:05:00 9.7 C 3.96 g/m*3 8.06 C 11.3 km/h
507 22-03-2020 18:10:00 9.7 C 3.87 g/m*3 9.02 C 6.4 km/h
508 22-03-2020 18:15:00 9.6 C 3.85 g/m*3 8.52 C 8.1 km/h
509 22-03-2020 18:20:00 9.4 C 3.89 g/m*3 8.28 C 8.1 km/h
510 22-03-2020 18:25:00 9.2 C 3.93 g/m*3 8.05 C 8.1 km/h
511 22-03-2020 18:30:00 8.9 C 3.77 g/m*3 7.09 C 11.3 km/h
512 22-03-2020 18:35:00 8.6 C 3.78 g/m*3 5.37 C 22.5 km/h
513 22-03-2020 18:40:00 8.2 C 3.77 g/m*3 6.25 C 11.3 km/h
514 22-03-2020 18:45:00 7.9 C 3.78 g/m*3 7.9 C 4.8 km/h
515 22-03-2020 18:50:00 7.6 C 3.87 g/m*3 7.6 C 3.2 km/h
516 22-03-2020 18:55:00 7.3 C 4.03 g/m*3 5.81 C 8.1 km/h
517 22-03-2020 19:00:00 6.9 C 3.93 g/m*3 6.9 C 4.8 km/h
518 22-03-2020 19:05:00 6.6 C 3.93 g/m*3 6.6 C 3.2 km/h
519 22-03-2020 19:10:00 6.4 C 4.17 g/m*3 6.4 C 4.8 km/h
520 22-03-2020 19:15:00 6.1 C 3.73 g/m*3 4.4 C 8.1 km/h
521 22-03-2020 19:20:00 6.1 C 3.95 g/m*3 6.1 C 3.2 km/h
522 22-03-2020 19:25:00 5.9 C 3.97 g/m*3 5.9 C 3.2 km/h
523 22-03-2020 19:30:00 5.7 C 4.27 g/m*3 5.7 C 3.2 km/h
524 22-03-2020 19:35:00 5.2 C 4.2 g/m*3 5.2 C 3.2 km/h
525 22-03-2020 19:40:00 4.9 C 4.19 g/m*3 4.9 C 1.6 km/h
Sensor: Nr:Datum:Temp:Abs-Feuchte:Windchill:Wind:
Aussen-T/F 526 22-03-2020 19:45:00 4.7 C 4.06 g/m*3 3.25 C 6.4 km/h
527 22-03-2020 19:50:00 4.6 C 4.04 g/m*3 4.6 C 3.2 km/h
528 22-03-2020 19:55:00 4.4 C 4.18 g/m*3 4.4 C 0 km/h
529 22-03-2020 20:00:00 4.3 C 4.02 g/m*3 0.97 C 14.5 km/h
530 22-03-2020 20:05:00 4.3 C 4.15 g/m*3 2.78 C 6.4 km/h
531 22-03-2020 20:10:00 4.2 C 4.06 g/m*3 4.2 C 1.6 km/h
532 22-03-2020 20:15:00 4.1 C 4.1 g/m*3 4.1 C 0 km/h
533 22-03-2020 20:20:00 3.9 C 3.79 g/m*3 1.06 C 11.3 km/h
534 22-03-2020 20:25:00 4 C 4.07 g/m*3 4 C 3.2 km/h
535 22-03-2020 20:30:00 4 C 3.94 g/m*3 4 C 4.8 km/h
536 22-03-2020 20:35:00 3.9 C 3.92 g/m*3 3.9 C 4.8 km/h
537 22-03-2020 20:40:00 3.8 C 3.89 g/m*3 2.21 C 6.4 km/h
538 22-03-2020 20:45:00 3.7 C 4.11 g/m*3 3.7 C 1.6 km/h
539 22-03-2020 20:50:00 3.4 C 4.09 g/m*3 3.4 C 1.6 km/h
540 22-03-2020 20:55:00 3.2 C 4.04 g/m*3 3.2 C 1.6 km/h
541 22-03-2020 21:00:00 3.1 C 3.77 g/m*3 3.1 C 3.2 km/h
542 22-03-2020 21:05:00 3.2 C 3.74 g/m*3 3.2 C 1.6 km/h
543 22-03-2020 21:10:00 3.2 C 3.92 g/m*3 3.2 C 3.2 km/h
544 22-03-2020 21:15:00 3.2 C 3.86 g/m*3 3.2 C 3.2 km/h
545 22-03-2020 21:20:00 3.1 C 3.95 g/m*3 3.1 C 3.2 km/h
546 22-03-2020 21:25:00 2.9 C 3.9 g/m*3 2.9 C 3.2 km/h
547 22-03-2020 21:30:00 2.9 C 3.84 g/m*3 2.9 C 4.8 km/h
548 22-03-2020 21:35:00 2.8 C 3.81 g/m*3 2.8 C 4.8 km/h
549 22-03-2020 21:40:00 2.8 C 3.81 g/m*3 2.8 C 4.8 km/h
550 22-03-2020 21:45:00 2.6 C 3.88 g/m*3 2.6 C 4.8 km/h
Sensor: Nr:Datum:Temp:Abs-Feuchte:Windchill:Wind:
Aussen-T/F 551 22-03-2020 21:50:00 2.4 C 3.88 g/m*3 2.4 C 4.8 km/h
552 22-03-2020 21:55:00 2.5 C 3.68 g/m*3 0.17 C 8.1 km/h
553 22-03-2020 22:00:00 2.7 C 3.85 g/m*3 2.7 C 3.2 km/h
554 22-03-2020 22:05:00 2.6 C 3.65 g/m*3 2.6 C 3.2 km/h
555 22-03-2020 22:10:00 2.7 C 3.67 g/m*3 -0.38 C 11.3 km/h
556 22-03-2020 22:15:00 3.1 C 3.65 g/m*3 0.46 C 9.7 km/h
557 22-03-2020 22:20:00 3.1 C 3.77 g/m*3 3.1 C 4.8 km/h
558 22-03-2020 22:25:00 2.8 C 3.81 g/m*3 2.8 C 3.2 km/h
559 22-03-2020 22:30:00 2.6 C 3.88 g/m*3 2.6 C 4.8 km/h
560 22-03-2020 22:35:00 2.3 C 3.69 g/m*3 2.3 C 3.2 km/h
561 22-03-2020 22:40:00 2.2 C 3.77 g/m*3 0.36 C 6.4 km/h
562 22-03-2020 22:45:00 2.2 C 3.77 g/m*3 2.2 C 3.2 km/h
563 22-03-2020 22:50:00 2.1 C 3.75 g/m*3 2.1 C 1.6 km/h
564 22-03-2020 22:55:00 1.9 C 3.81 g/m*3 1.9 C 1.6 km/h
565 22-03-2020 23:00:00 1.8 C 3.73 g/m*3 1.8 C 4.8 km/h
566 22-03-2020 23:05:00 1.7 C 3.81 g/m*3 1.7 C 3.2 km/h
567 22-03-2020 23:10:00 1.7 C 3.7 g/m*3 -1.21 C 9.7 km/h
568 22-03-2020 23:15:00 1.7 C 3.65 g/m*3 1.7 C 3.2 km/h
569 22-03-2020 23:20:00 1.6 C 3.73 g/m*3 1.6 C 3.2 km/h
570 22-03-2020 23:25:00 1.4 C 3.68 g/m*3 1.4 C 4.8 km/h
571 22-03-2020 23:30:00 1.3 C 3.71 g/m*3 1.3 C 4.8 km/h
572 22-03-2020 23:35:00 1.2 C 3.74 g/m*3 1.2 C 3.2 km/h
573 22-03-2020 23:40:00 1.1 C 3.76 g/m*3 1.1 C 1.6 km/h
574 22-03-2020 23:45:00 0.9 C 3.71 g/m*3 0.9 C 4.8 km/h
575 22-03-2020 23:50:00 1.1 C 3.66 g/m*3 -1.48 C 8.1 km/h
Sensor: Nr:Datum:Temp:Abs-Feuchte:Windchill:Wind:
Aussen-T/F 576 22-03-2020 23:55:00 1.1 C 3.71 g/m*3 1.1 C 3.2 km/h
577 23-03-2020 00:00:00 1 C 3.69 g/m*3 1 C 1.6 km/h
578 23-03-2020 00:05:00 0.9 C 3.66 g/m*3 -1.14 C 6.4 km/h
579 23-03-2020 00:10:00 0.8 C 3.63 g/m*3 0.8 C 3.2 km/h
580 23-03-2020 00:15:00 0.8 C 3.69 g/m*3 0.8 C 1.6 km/h
581 23-03-2020 00:20:00 0.7 C 3.66 g/m*3 0.7 C 1.6 km/h
582 23-03-2020 00:25:00 0.5 C 3.66 g/m*3 0.5 C 0 km/h
583 23-03-2020 00:30:00 0.3 C 3.66 g/m*3 0.3 C 0 km/h
584 23-03-2020 00:35:00 0.2 C 3.64 g/m*3 0.2 C 1.6 km/h
585 23-03-2020 00:40:00 0.1 C 3.66 g/m*3 0.1 C 3.2 km/h
586 23-03-2020 00:45:00 0 C 3.63 g/m*3 0 C 1.6 km/h
587 23-03-2020 00:50:00 -0.1 C 3.66 g/m*3 -0.1 C 1.6 km/h
588 23-03-2020 00:55:00 -0.1 C 3.66 g/m*3 -0.1 C 4.8 km/h
589 23-03-2020 01:00:00 -0.2 C 3.63 g/m*3 -0.2 C 3.2 km/h
590 23-03-2020 01:05:00 -0.2 C 3.58 g/m*3 -0.2 C 3.2 km/h
591 23-03-2020 01:10:00 -0.2 C 3.58 g/m*3 -0.2 C 3.2 km/h
592 23-03-2020 01:15:00 -0.2 C 3.58 g/m*3 -0.2 C 4.8 km/h
593 23-03-2020 01:20:00 -0.3 C 3.61 g/m*3 -0.3 C 3.2 km/h
594 23-03-2020 01:25:00 -0.3 C 3.56 g/m*3 -0.3 C 0 km/h
595 23-03-2020 01:30:00 -0.3 C 3.61 g/m*3 -0.3 C 3.2 km/h
596 23-03-2020 01:35:00 -0.3 C 3.61 g/m*3 -0.3 C 3.2 km/h
597 23-03-2020 01:40:00 -0.4 C 3.58 g/m*3 -0.4 C 3.2 km/h
598 23-03-2020 01:45:00 -0.4 C 3.58 g/m*3 -0.4 C 4.8 km/h
599 23-03-2020 01:50:00 -0.5 C 3.51 g/m*3 -0.5 C 4.8 km/h
600 23-03-2020 01:55:00 -0.5 C 3.56 g/m*3 -0.5 C 0 km/h
Sensor: Nr:Datum:Temp:Abs-Feuchte:Windchill:Wind:
Aussen-T/F 601 23-03-2020 02:00:00 -0.6 C 3.53 g/m*3 -0.6 C 4.8 km/h
602 23-03-2020 02:05:00 -0.6 C 3.53 g/m*3 -0.6 C 4.8 km/h
603 23-03-2020 02:10:00 -0.6 C 3.53 g/m*3 -0.6 C 3.2 km/h
604 23-03-2020 02:15:00 -0.7 C 3.51 g/m*3 -0.7 C 4.8 km/h
605 23-03-2020 02:20:00 -0.7 C 3.46 g/m*3 -0.7 C 4.8 km/h
606 23-03-2020 02:25:00 -0.7 C 3.46 g/m*3 -0.7 C 4.8 km/h
607 23-03-2020 02:30:00 -0.7 C 3.46 g/m*3 -0.7 C 4.8 km/h
608 23-03-2020 02:35:00 -0.7 C 3.42 g/m*3 -0.7 C 1.6 km/h
609 23-03-2020 02:40:00 -0.7 C 3.51 g/m*3 -0.7 C 3.2 km/h
610 23-03-2020 02:45:00 -0.7 C 3.51 g/m*3 -0.7 C 3.2 km/h
611 23-03-2020 02:50:00 -0.8 C 3.44 g/m*3 -0.8 C 4.8 km/h
612 23-03-2020 02:55:00 -0.8 C 3.44 g/m*3 -0.8 C 3.2 km/h
613 23-03-2020 03:00:00 -0.9 C 3.37 g/m*3 -0.9 C 1.6 km/h
614 23-03-2020 03:05:00 -0.9 C 3.41 g/m*3 -0.9 C 4.8 km/h
615 23-03-2020 03:10:00 -0.9 C 3.41 g/m*3 -0.9 C 3.2 km/h
616 23-03-2020 03:15:00 -0.9 C 3.46 g/m*3 -0.9 C 4.8 km/h
617 23-03-2020 03:20:00 -1 C 3.44 g/m*3 -1 C 4.8 km/h
618 23-03-2020 03:25:00 -1 C 3.44 g/m*3 -1 C 3.2 km/h
619 23-03-2020 03:30:00 -1.1 C 3.37 g/m*3 -1.1 C 1.6 km/h
620 23-03-2020 03:35:00 -1.1 C 3.37 g/m*3 -3.45 C 6.4 km/h
621 23-03-2020 03:40:00 -1.1 C 3.37 g/m*3 -1.1 C 1.6 km/h
622 23-03-2020 03:45:00 -1.1 C 3.41 g/m*3 -1.1 C 4.8 km/h
623 23-03-2020 03:50:00 -1.2 C 3.39 g/m*3 -1.2 C 4.8 km/h
624 23-03-2020 03:55:00 -1.3 C 3.36 g/m*3 -1.3 C 4.8 km/h
625 23-03-2020 04:00:00 -1.3 C 3.32 g/m*3 -1.3 C 4.8 km/h
Sensor: Nr:Datum:Temp:Abs-Feuchte:Windchill:Wind:
Aussen-T/F 626 23-03-2020 04:05:00 -1.3 C 3.36 g/m*3 -1.3 C 3.2 km/h
627 23-03-2020 04:10:00 -1.3 C 3.36 g/m*3 -1.3 C 4.8 km/h
628 23-03-2020 04:15:00 -1.4 C 3.34 g/m*3 -1.4 C 3.2 km/h
629 23-03-2020 04:20:00 -1.4 C 3.34 g/m*3 -1.4 C 1.6 km/h
630 23-03-2020 04:25:00 -1.5 C 3.32 g/m*3 -3.91 C 6.4 km/h
631 23-03-2020 04:30:00 -1.5 C 3.32 g/m*3 -1.5 C 4.8 km/h
632 23-03-2020 04:35:00 -1.6 C 3.34 g/m*3 -1.6 C 3.2 km/h
633 23-03-2020 04:40:00 -1.7 C 3.27 g/m*3 -1.7 C 3.2 km/h
634 23-03-2020 04:45:00 -1.7 C 3.31 g/m*3 -1.7 C 1.6 km/h
635 23-03-2020 04:50:00 -1.7 C 3.36 g/m*3 -1.7 C 3.2 km/h
636 23-03-2020 04:55:00 -1.8 C 3.33 g/m*3 -1.8 C 0 km/h
637 23-03-2020 05:00:00 -1.8 C 3.29 g/m*3 -1.8 C 3.2 km/h
638 23-03-2020 05:05:00 -1.8 C 3.33 g/m*3 -1.8 C 1.6 km/h
639 23-03-2020 05:10:00 -1.9 C 3.31 g/m*3 -1.9 C 1.6 km/h
640 23-03-2020 05:15:00 -1.9 C 3.31 g/m*3 -1.9 C 0 km/h
641 23-03-2020 05:20:00 -2 C 3.29 g/m*3 -2 C 0 km/h
642 23-03-2020 05:25:00 -2 C 3.29 g/m*3 -2 C 3.2 km/h
643 23-03-2020 05:30:00 -2.1 C 3.26 g/m*3 -2.1 C 4.8 km/h
644 23-03-2020 05:35:00 -2.1 C 3.26 g/m*3 -2.1 C 4.8 km/h
645 23-03-2020 05:40:00 -2.1 C 3.26 g/m*3 -2.1 C 4.8 km/h
646 23-03-2020 05:45:00 -2.1 C 3.26 g/m*3 -2.1 C 3.2 km/h
647 23-03-2020 05:50:00 -2.1 C 3.31 g/m*3 -2.1 C 3.2 km/h
648 23-03-2020 05:55:00 -2.1 C 3.31 g/m*3 -2.1 C 1.6 km/h
649 23-03-2020 06:00:00 -2.2 C 3.28 g/m*3 -2.2 C 4.8 km/h
650 23-03-2020 06:05:00 -2.2 C 3.28 g/m*3 -2.2 C 3.2 km/h
Sensor: Nr:Datum:Temp:Abs-Feuchte:Windchill:Wind:
Aussen-T/F 651 23-03-2020 06:10:00 -2.3 C 3.26 g/m*3 -2.3 C 3.2 km/h
652 23-03-2020 06:15:00 -2.3 C 3.26 g/m*3 -2.3 C 1.6 km/h
653 23-03-2020 06:20:00 -2.3 C 3.26 g/m*3 -2.3 C 3.2 km/h
654 23-03-2020 06:25:00 -2.3 C 3.26 g/m*3 -2.3 C 3.2 km/h
655 23-03-2020 06:30:00 -2.4 C 3.24 g/m*3 -2.4 C 3.2 km/h
656 23-03-2020 06:35:00 -2.4 C 3.24 g/m*3 -2.4 C 4.8 km/h
657 23-03-2020 06:40:00 -2.4 C 3.24 g/m*3 -2.4 C 0 km/h
658 23-03-2020 06:45:00 -2.4 C 3.24 g/m*3 -2.4 C 0 km/h
659 23-03-2020 06:50:00 -2.4 C 3.24 g/m*3 -2.4 C 3.2 km/h
660 23-03-2020 06:55:00 -2.4 C 3.28 g/m*3 -2.4 C 1.6 km/h
661 23-03-2020 07:00:00 -2.3 C 3.3 g/m*3 -2.3 C 4.8 km/h
662 23-03-2020 07:05:00 -2.3 C 3.3 g/m*3 -2.3 C 3.2 km/h
663 23-03-2020 07:10:00 -2.3 C 3.3 g/m*3 -2.3 C 3.2 km/h
664 23-03-2020 07:15:00 -2.3 C 3.3 g/m*3 -2.3 C 4.8 km/h
665 23-03-2020 07:20:00 -2.2 C 3.33 g/m*3 -2.2 C 4.8 km/h
666 23-03-2020 07:25:00 -2.2 C 3.28 g/m*3 -2.2 C 3.2 km/h
667 23-03-2020 07:30:00 -2.1 C 3.31 g/m*3 -2.1 C 1.6 km/h
668 23-03-2020 07:35:00 -2.1 C 3.31 g/m*3 -2.1 C 0 km/h
669 23-03-2020 07:40:00 -2 C 3.33 g/m*3 -2 C 4.8 km/h
670 23-03-2020 07:45:00 -1.9 C 3.31 g/m*3 -1.9 C 1.6 km/h
671 23-03-2020 07:50:00 -1.7 C 3.23 g/m*3 -1.7 C 4.8 km/h
672 23-03-2020 07:55:00 -1.3 C 3.28 g/m*3 -4.78 C 9.7 km/h
673 23-03-2020 08:00:00 -1.2 C 3.34 g/m*3 -1.2 C 3.2 km/h
674 23-03-2020 08:05:00 -1.1 C 3.37 g/m*3 -3.45 C 6.4 km/h
675 23-03-2020 08:10:00 -1.1 C 3.23 g/m*3 -4.06 C 8.1 km/h
Sensor: Nr:Datum:Temp:Abs-Feuchte:Windchill:Wind:
Aussen-T/F 676 23-03-2020 08:15:00 -0.9 C 3.23 g/m*3 -0.9 C 4.8 km/h
677 23-03-2020 08:20:00 -0.7 C 3.09 g/m*3 -2.99 C 6.4 km/h
678 23-03-2020 08:25:00 -0.4 C 3.2 g/m*3 -3.71 C 9.7 km/h
679 23-03-2020 08:30:00 -0.2 C 3.15 g/m*3 -3.47 C 9.7 km/h
680 23-03-2020 08:35:00 0 C 3 g/m*3 -2.18 C 6.4 km/h
681 23-03-2020 08:40:00 0.3 C 3.02 g/m*3 -1.84 C 6.4 km/h
682 23-03-2020 08:45:00 0.4 C 2.99 g/m*3 -2.3 C 8.1 km/h
683 23-03-2020 08:50:00 0.6 C 2.98 g/m*3 0.6 C 4.8 km/h
684 23-03-2020 08:55:00 0.7 C 2.9 g/m*3 -2.4 C 9.7 km/h
685 23-03-2020 09:00:00 0.9 C 2.99 g/m*3 -2.9 C 12.9 km/h
686 23-03-2020 09:05:00 1 C 2.91 g/m*3 1 C 3.2 km/h
687 23-03-2020 09:10:00 1.2 C 2.95 g/m*3 1.2 C 3.2 km/h
688 23-03-2020 09:15:00 1.2 C 2.95 g/m*3 -0.8 C 6.4 km/h
689 23-03-2020 09:20:00 1.3 C 2.91 g/m*3 -2.07 C 11.3 km/h
690 23-03-2020 09:25:00 1.4 C 3.04 g/m*3 -1.95 C 11.3 km/h
691 23-03-2020 09:30:00 1.7 C 2.99 g/m*3 -1.93 C 12.9 km/h
692 23-03-2020 09:35:00 1.8 C 2.96 g/m*3 -1.09 C 9.7 km/h
693 23-03-2020 09:40:00 1.9 C 2.87 g/m*3 -2.51 C 17.7 km/h
694 23-03-2020 09:45:00 2.2 C 2.82 g/m*3 -0.99 C 11.3 km/h
695 23-03-2020 09:50:00 2.4 C 2.85 g/m*3 -1.07 C 12.9 km/h
696 23-03-2020 09:55:00 2.6 C 2.95 g/m*3 2.6 C 4.8 km/h
697 23-03-2020 10:00:00 2.7 C 2.97 g/m*3 -0.38 C 11.3 km/h
698 23-03-2020 10:05:00 3 C 2.91 g/m*3 -0.02 C 11.3 km/h
699 23-03-2020 10:10:00 3.1 C 2.93 g/m*3 1.4 C 6.4 km/h
700 23-03-2020 10:15:00 3.3 C 2.79 g/m*3 0.7 C 9.7 km/h
Sensor: Nr:Datum:Temp:Abs-Feuchte:Windchill:Wind:
Aussen-T/F 701 23-03-2020 10:20:00 3.4 C 2.75 g/m*3 0.82 C 9.7 km/h
702 23-03-2020 10:25:00 3.7 C 2.99 g/m*3 2.09 C 6.4 km/h
703 23-03-2020 10:30:00 3.9 C 2.72 g/m*3 0.22 C 16.1 km/h
704 23-03-2020 10:35:00 4.1 C 2.69 g/m*3 1.31 C 11.3 km/h
705 23-03-2020 10:40:00 4.3 C 2.66 g/m*3 1.89 C 9.7 km/h
706 23-03-2020 10:45:00 4.6 C 2.58 g/m*3 1.61 C 12.9 km/h
707 23-03-2020 10:50:00 4.8 C 2.55 g/m*3 1.85 C 12.9 km/h
708 23-03-2020 10:55:00 5 C 2.72 g/m*3 3.11 C 8.1 km/h
709 23-03-2020 11:00:00 5.2 C 2.75 g/m*3 2.96 C 9.7 km/h
710 23-03-2020 11:05:00 5.4 C 2.58 g/m*3 2.32 C 14.5 km/h
711 23-03-2020 11:10:00 5.6 C 2.55 g/m*3 2.57 C 14.5 km/h
712 23-03-2020 11:15:00 5.7 C 2.49 g/m*3 2.24 C 17.7 km/h
713 23-03-2020 11:20:00 5.8 C 2.51 g/m*3 2.58 C 16.1 km/h
714 23-03-2020 11:25:00 5.9 C 2.45 g/m*3 2.93 C 14.5 km/h
715 23-03-2020 11:30:00 6.1 C 2.41 g/m*3 3.43 C 12.9 km/h
716 23-03-2020 11:35:00 6.3 C 2.37 g/m*3 3.68 C 12.9 km/h
717 23-03-2020 11:40:00 6.4 C 2.46 g/m*3 3.32 C 16.1 km/h
718 23-03-2020 11:45:00 6.4 C 2.46 g/m*3 4.08 C 11.3 km/h
719 23-03-2020 11:50:00 6.6 C 2.49 g/m*3 4.99 C 8.1 km/h
720 23-03-2020 11:55:00 6.8 C 2.45 g/m*3 4.29 C 12.9 km/h
721 23-03-2020 12:00:00 6.9 C 2.46 g/m*3 3.94 C 16.1 km/h
722 23-03-2020 12:05:00 6.9 C 2.23 g/m*3 3.04 C 24.1 km/h
723 23-03-2020 12:10:00 7 C 2.25 g/m*3 3.86 C 17.7 km/h
724 23-03-2020 12:15:00 7.2 C 2.2 g/m*3 3.92 C 19.3 km/h
725 23-03-2020 12:20:00 7.3 C 2.37 g/m*3 4.66 C 14.5 km/h
Sensor: Nr:Datum:Temp:Abs-Feuchte:Windchill:Wind:
Aussen-T/F 726 23-03-2020 12:25:00 7.5 C 2.24 g/m*3 5.14 C 12.9 km/h
727 23-03-2020 12:30:00 7.7 C 2.43 g/m*3 5.94 C 9.7 km/h
728 23-03-2020 12:35:00 7.8 C 2.29 g/m*3 5.27 C 14.5 km/h
729 23-03-2020 12:40:00 7.9 C 2.14 g/m*3 6.18 C 9.7 km/h
730 23-03-2020 12:45:00 8 C 2.15 g/m*3 6.01 C 11.3 km/h
731 23-03-2020 12:50:00 8 C 2.15 g/m*3 5.11 C 17.7 km/h
732 23-03-2020 12:55:00 8 C 2.23 g/m*3 5.11 C 17.7 km/h
733 23-03-2020 13:00:00 8.1 C 2.25 g/m*3 5.64 C 14.5 km/h
734 23-03-2020 13:05:00 8.2 C 2.34 g/m*3 4.86 C 22.5 km/h
735 23-03-2020 13:10:00 8.1 C 2.16 g/m*3 4.44 C 25.7 km/h
736 23-03-2020 13:15:00 8.3 C 2.28 g/m*3 5.14 C 20.9 km/h
737 23-03-2020 13:20:00 8.3 C 2.28 g/m*3 5.14 C 20.9 km/h
738 23-03-2020 13:25:00 8.4 C 2.12 g/m*3 6.49 C 11.3 km/h
739 23-03-2020 13:30:00 8.6 C 2.23 g/m*3 7.01 C 9.7 km/h
740 23-03-2020 13:35:00 8.7 C 2.25 g/m*3 5.49 C 22.5 km/h
741 23-03-2020 13:40:00 8.8 C 2.18 g/m*3 5.48 C 24.1 km/h
742 23-03-2020 13:45:00 8.8 C 2.09 g/m*3 6.72 C 12.9 km/h
743 23-03-2020 13:50:00 8.8 C 2.18 g/m*3 6.11 C 17.7 km/h
744 23-03-2020 13:55:00 8.9 C 2.01 g/m*3 6.42 C 16.1 km/h
745 23-03-2020 14:00:00 8.7 C 1.99 g/m*3 5.81 C 19.3 km/h
746 23-03-2020 14:05:00 8.7 C 1.99 g/m*3 6.85 C 11.3 km/h
747 23-03-2020 14:10:00 8.7 C 2.16 g/m*3 6.6 C 12.9 km/h
748 23-03-2020 14:15:00 8.8 C 2.09 g/m*3 6.72 C 12.9 km/h
749 23-03-2020 14:20:00 8.8 C 2.26 g/m*3 6.5 C 14.5 km/h
750 23-03-2020 14:25:00 9 C 2.12 g/m*3 5.87 C 22.5 km/h
Sensor: Nr:Datum:Temp:Abs-Feuchte:Windchill:Wind:
Aussen-T/F 751 23-03-2020 14:30:00 9.1 C 2.13 g/m*3 6.48 C 17.7 km/h
752 23-03-2020 14:35:00 9 C 2.12 g/m*3 6.36 C 17.7 km/h
753 23-03-2020 14:40:00 9 C 2.29 g/m*3 6.75 C 14.5 km/h
754 23-03-2020 14:45:00 9 C 2.2 g/m*3 7.21 C 11.3 km/h
755 23-03-2020 14:50:00 9 C 2.2 g/m*3 6.75 C 14.5 km/h
756 23-03-2020 14:55:00 9 C 2.12 g/m*3 6.36 C 17.7 km/h
757 23-03-2020 15:00:00 9 C 2.2 g/m*3 7.21 C 11.3 km/h
758 23-03-2020 15:05:00 9.1 C 2.22 g/m*3 6.87 C 14.5 km/h
759 23-03-2020 15:10:00 9.2 C 2.23 g/m*3 6.79 C 16.1 km/h
760 23-03-2020 15:15:00 9.3 C 2.34 g/m*3 7.33 C 12.9 km/h
761 23-03-2020 15:20:00 9.3 C 2.16 g/m*3 7.58 C 11.3 km/h
762 23-03-2020 15:25:00 9.4 C 2.35 g/m*3 7.7 C 11.3 km/h
763 23-03-2020 15:30:00 9.5 C 2.18 g/m*3 7.36 C 14.5 km/h
764 23-03-2020 15:35:00 9.6 C 2.2 g/m*3 7.48 C 14.5 km/h
765 23-03-2020 15:40:00 9.7 C 2.3 g/m*3 7.82 C 12.9 km/h
766 23-03-2020 15:45:00 9.7 C 2.3 g/m*3 7.61 C 14.5 km/h
767 23-03-2020 15:50:00 9.6 C 2.11 g/m*3 6.94 C 19.3 km/h
768 23-03-2020 15:55:00 9.7 C 2.3 g/m*3 8.06 C 11.3 km/h
769 23-03-2020 16:00:00 9.8 C 2.23 g/m*3 7.94 C 12.9 km/h
770 23-03-2020 16:05:00 9.8 C 2.13 g/m*3 8.18 C 11.3 km/h
771 23-03-2020 16:10:00 10 C 2.35 g/m*3 8.19 C 12.9 km/h
772 23-03-2020 16:15:00 10.1 C 2.46 g/m*3 8.31 C 12.9 km/h
773 23-03-2020 16:20:00 10.3 C 2.2 g/m*3 8.78 C 11.3 km/h
774 23-03-2020 16:25:00 10.4 C 2.31 g/m*3 9.46 C 8.1 km/h
775 23-03-2020 16:30:00 10.4 C 2.22 g/m*3 8.67 C 12.9 km/h
Sensor: Nr:Datum:Temp:Abs-Feuchte:Windchill:Wind:
Aussen-T/F 776 23-03-2020 16:35:00 10.4 C 2.22 g/m*3 8.9 C 11.3 km/h
777 23-03-2020 16:40:00 10.4 C 2.41 g/m*3 8.9 C 11.3 km/h
778 23-03-2020 16:45:00 10.5 C 2.33 g/m*3 8.8 C 12.9 km/h
779 23-03-2020 16:50:00 10.4 C 2.31 g/m*3 8.67 C 12.9 km/h
780 23-03-2020 16:55:00 10.3 C 2.49 g/m*3 8.78 C 11.3 km/h
781 23-03-2020 17:00:00 10.4 C 2.31 g/m*3 8.67 C 12.9 km/h
782 23-03-2020 17:05:00 10.4 C 2.51 g/m*3 9.83 C 6.4 km/h
783 23-03-2020 17:10:00 10.3 C 2.49 g/m*3 8.78 C 11.3 km/h
784 23-03-2020 17:15:00 10.5 C 2.52 g/m*3 8.8 C 12.9 km/h
785 23-03-2020 17:20:00 10.4 C 2.51 g/m*3 9.16 C 9.7 km/h
786 23-03-2020 17:25:00 10.4 C 2.51 g/m*3 9.16 C 9.7 km/h
787 23-03-2020 17:30:00 10.3 C 2.59 g/m*3 10.3 C 4.8 km/h
788 23-03-2020 17:35:00 10.2 C 2.38 g/m*3 8.66 C 11.3 km/h
789 23-03-2020 17:40:00 10.2 C 2.57 g/m*3 8.92 C 9.7 km/h
790 23-03-2020 17:45:00 10.1 C 2.46 g/m*3 8.8 C 9.7 km/h
791 23-03-2020 17:50:00 10 C 2.44 g/m*3 8.99 C 8.1 km/h
792 23-03-2020 17:55:00 9.9 C 2.43 g/m*3 9.25 C 6.4 km/h
793 23-03-2020 18:00:00 9.9 C 2.52 g/m*3 9.9 C 3.2 km/h
794 23-03-2020 18:05:00 9.8 C 2.32 g/m*3 9.8 C 4.8 km/h
795 23-03-2020 18:10:00 9.8 C 2.41 g/m*3 9.8 C 4.8 km/h
796 23-03-2020 18:15:00 9.6 C 2.47 g/m*3 9.6 C 4.8 km/h
797 23-03-2020 18:20:00 9.4 C 2.53 g/m*3 8.28 C 8.1 km/h
798 23-03-2020 18:25:00 9.1 C 2.48 g/m*3 8.33 C 6.4 km/h
799 23-03-2020 18:30:00 8.8 C 2.44 g/m*3 8.8 C 4.8 km/h
800 23-03-2020 18:35:00 8.4 C 2.97 g/m*3 8.4 C 1.6 km/h
Sensor: Nr:Datum:Temp:Abs-Feuchte:Windchill:Wind:
Aussen-T/F 801 23-03-2020 18:40:00 7.9 C 3.29 g/m*3 7.9 C 4.8 km/h
802 23-03-2020 18:45:00 7.2 C 3.3 g/m*3 7.2 C 4.8 km/h
803 23-03-2020 18:50:00 6.6 C 3.4 g/m*3 6.6 C 4.8 km/h
804 23-03-2020 18:55:00 5.9 C 3.39 g/m*3 5.9 C 4.8 km/h
805 23-03-2020 19:00:00 5.3 C 3.33 g/m*3 5.3 C 4.8 km/h
806 23-03-2020 19:05:00 4.9 C 3.44 g/m*3 4.9 C 4.8 km/h
807 23-03-2020 19:10:00 4.6 C 3.37 g/m*3 4.6 C 4.8 km/h
808 23-03-2020 19:15:00 4.2 C 3.35 g/m*3 2.67 C 6.4 km/h
809 23-03-2020 19:20:00 3.9 C 3.41 g/m*3 3.9 C 4.8 km/h
810 23-03-2020 19:25:00 3.7 C 3.43 g/m*3 2.09 C 6.4 km/h
811 23-03-2020 19:30:00 3.5 C 3.44 g/m*3 3.5 C 4.8 km/h
812 23-03-2020 19:35:00 3.3 C 3.46 g/m*3 1.63 C 6.4 km/h
813 23-03-2020 19:40:00 3.2 C 3.43 g/m*3 1.51 C 6.4 km/h
814 23-03-2020 19:45:00 3 C 3.45 g/m*3 3 C 4.8 km/h
815 23-03-2020 19:50:00 2.9 C 3.48 g/m*3 2.9 C 4.8 km/h
816 23-03-2020 19:55:00 2.8 C 3.52 g/m*3 2.8 C 4.8 km/h
817 23-03-2020 20:00:00 2.6 C 3.53 g/m*3 2.6 C 4.8 km/h
818 23-03-2020 20:05:00 2.5 C 3.45 g/m*3 2.5 C 4.8 km/h
819 23-03-2020 20:10:00 2.3 C 3.52 g/m*3 2.3 C 4.8 km/h
820 23-03-2020 20:15:00 2.2 C 3.49 g/m*3 2.2 C 4.8 km/h
821 23-03-2020 20:20:00 2.2 C 3.49 g/m*3 0.36 C 6.4 km/h
822 23-03-2020 20:25:00 2.1 C 3.52 g/m*3 2.1 C 4.8 km/h
823 23-03-2020 20:30:00 2.1 C 3.58 g/m*3 2.1 C 4.8 km/h
824 23-03-2020 20:35:00 2 C 3.45 g/m*3 0.13 C 6.4 km/h
825 23-03-2020 20:40:00 2 C 3.45 g/m*3 2 C 4.8 km/h
Sensor: Nr:Datum:Temp:Abs-Feuchte:Windchill:Wind:
Aussen-T/F 826 23-03-2020 20:45:00 2 C 3.45 g/m*3 0.13 C 6.4 km/h
827 23-03-2020 20:50:00 2 C 3.45 g/m*3 0.13 C 6.4 km/h
828 23-03-2020 20:55:00 1.9 C 3.42 g/m*3 0.01 C 6.4 km/h
829 23-03-2020 21:00:00 1.9 C 3.53 g/m*3 1.9 C 4.8 km/h
830 23-03-2020 21:05:00 1.8 C 3.51 g/m*3 1.8 C 4.8 km/h
831 23-03-2020 21:10:00 1.7 C 3.54 g/m*3 1.7 C 3.2 km/h
832 23-03-2020 21:15:00 1.6 C 3.57 g/m*3 -0.33 C 6.4 km/h
833 23-03-2020 21:20:00 1.5 C 3.54 g/m*3 1.5 C 4.8 km/h
834 23-03-2020 21:25:00 1.3 C 3.55 g/m*3 1.3 C 4.8 km/h
835 23-03-2020 21:30:00 1.2 C 3.53 g/m*3 1.2 C 4.8 km/h
836 23-03-2020 21:35:00 1.1 C 3.55 g/m*3 1.1 C 3.2 km/h
837 23-03-2020 21:40:00 1.1 C 3.55 g/m*3 1.1 C 4.8 km/h
838 23-03-2020 21:45:00 1 C 3.53 g/m*3 1 C 3.2 km/h
839 23-03-2020 21:50:00 0.9 C 3.51 g/m*3 0.9 C 3.2 km/h
840 23-03-2020 21:55:00 0.8 C 3.48 g/m*3 0.8 C 0 km/h
841 23-03-2020 22:00:00 0.7 C 3.51 g/m*3 0.7 C 1.6 km/h
842 23-03-2020 22:05:00 0.6 C 3.53 g/m*3 0.6 C 1.6 km/h
843 23-03-2020 22:10:00 0.4 C 3.54 g/m*3 0.4 C 0 km/h
844 23-03-2020 22:15:00 0.3 C 3.56 g/m*3 0.3 C 3.2 km/h
845 23-03-2020 22:20:00 0.2 C 3.54 g/m*3 0.2 C 3.2 km/h
846 23-03-2020 22:25:00 0.2 C 3.59 g/m*3 0.2 C 0 km/h
847 23-03-2020 22:30:00 0.1 C 3.61 g/m*3 0.1 C 0 km/h
848 23-03-2020 22:35:00 0 C 3.54 g/m*3 0 C 3.2 km/h
849 23-03-2020 22:40:00 -0.1 C 3.56 g/m*3 -0.1 C 3.2 km/h
850 23-03-2020 22:45:00 -0.1 C 3.56 g/m*3 -0.1 C 0 km/h
Sensor: Nr:Datum:Temp:Abs-Feuchte:Windchill:Wind:
Aussen-T/F 851 23-03-2020 22:50:00 -0.1 C 3.56 g/m*3 -0.1 C 0 km/h
852 23-03-2020 22:55:00 -0.2 C 3.54 g/m*3 -0.2 C 0 km/h
853 23-03-2020 23:00:00 -0.3 C 3.56 g/m*3 -0.3 C 0 km/h
854 23-03-2020 23:05:00 -0.4 C 3.53 g/m*3 -0.4 C 0 km/h
855 23-03-2020 23:10:00 -0.4 C 3.58 g/m*3 -0.4 C 0 km/h
856 23-03-2020 23:15:00 -0.4 C 3.58 g/m*3 -0.4 C 0 km/h
857 23-03-2020 23:20:00 -0.4 C 3.53 g/m*3 -0.4 C 0 km/h
858 23-03-2020 23:25:00 -0.4 C 3.58 g/m*3 -0.4 C 0 km/h
859 23-03-2020 23:30:00 -0.5 C 3.56 g/m*3 -0.5 C 0 km/h
860 23-03-2020 23:35:00 -0.6 C 3.58 g/m*3 -0.6 C 0 km/h
861 23-03-2020 23:40:00 -0.6 C 3.58 g/m*3 -0.6 C 0 km/h
862 23-03-2020 23:45:00 -0.7 C 3.55 g/m*3 -0.7 C 0 km/h
863 23-03-2020 23:50:00 -0.7 C 3.55 g/m*3 -0.7 C 0 km/h
864 23-03-2020 23:55:00 -0.7 C 3.55 g/m*3 -0.7 C 0 km/h

Legende:
   Min
   Max


Maximal/Minimal-Werte vom 21.03.2020 - 23.03.2020

Sensor Min Max Avg
Temp
(Aussen-T/F)
-2.4 °C
23-03-2020  06:30:00
11.3 °C
22-03-2020  16:45:00
4.56 °C
Abs-Feuchte
(Aussen-T/F)
1.99 g/m*3
23-03-2020  14:00:00
6.87 g/m*3
21-03-2020  10:00:00
4.07 g/m*3
Windchill
(Aussen-T/F)
-4.78 C
23-03-2020  07:55:00
11.3 C
22-03-2020  16:45:00
3.19 C

Die Daten stammen von einer Davis Vantage Pro 2 Wetter-Station und werden unter Linux mit der Software wview2wettercgi und aufbereitet. Alle Angaben erfolgen ohne Gewähr für ihre Vollständigkeit oder Richtigkeit.
Kontakt: Rainer Krienke krienke@uni-koblenz.de . Meine Webseiten an der Uni Koblenz oder privat.
Version: $Revision: 0.78 $